createdAt,value
2022-08-26T00:00:09.167Z,3.799
2022-08-26T00:01:07.551Z,4.199
2022-08-26T00:02:08.079Z,3.5
2022-08-26T00:03:07.975Z,3.900
2022-08-26T00:04:07.971Z,4.699
2022-08-26T00:05:07.585Z,4.400
2022-08-26T00:06:07.615Z,4.099
2022-08-26T00:07:07.869Z,4.5
2022-08-26T00:08:07.569Z,4.699
2022-08-26T00:09:08.026Z,5
2022-08-26T00:11:07.554Z,5.099
2022-08-26T00:13:07.839Z,6.099
2022-08-26T00:14:07.731Z,5.900
2022-08-26T00:15:07.644Z,6.300
2022-08-26T00:17:08.601Z,7.099
2022-08-26T00:18:21.912Z,6.900
2022-08-26T00:20:07.583Z,7.699
2022-08-26T00:21:07.605Z,8
2022-08-26T00:22:07.440Z,7.800
2022-08-26T00:23:07.813Z,8
2022-08-26T00:24:07.855Z,8.800
2022-08-26T00:25:07.717Z,7.900
2022-08-26T00:26:08.458Z,9.199
2022-08-26T00:27:08.223Z,8.300
2022-08-26T00:28:07.904Z,9.199
2022-08-26T00:29:07.531Z,9.800
2022-08-26T00:30:07.813Z,10.19
2022-08-26T00:31:07.655Z,9.800
2022-08-26T00:32:07.605Z,10.80
2022-08-26T00:33:08.107Z,10.69
2022-08-26T00:34:07.457Z,10.39
2022-08-26T00:35:08.262Z,11.5
2022-08-26T00:36:07.621Z,10.5
2022-08-26T00:37:09.085Z,11.30
2022-08-26T00:38:07.676Z,10.60
2022-08-26T00:39:07.840Z,12.39
2022-08-26T00:40:08.080Z,11.30
2022-08-26T00:41:07.661Z,12
2022-08-26T00:42:07.976Z,12.39
2022-08-26T00:43:09.429Z,11.80
2022-08-26T00:44:07.600Z,12.19
2022-08-26T00:45:10.187Z,11.89
2022-08-26T00:46:08.143Z,12.19
2022-08-26T00:47:07.535Z,14.19
2022-08-26T00:48:07.633Z,13.5
2022-08-26T00:49:12.180Z,13.60
2022-08-26T00:50:07.684Z,14.19
2022-08-26T00:51:07.586Z,14.39
2022-08-26T00:52:09.846Z,13.19
2022-08-26T00:53:07.851Z,13.89
2022-08-26T00:54:07.953Z,13.5
2022-08-26T00:55:08.107Z,14.89
2022-08-26T00:56:07.601Z,16.39
2022-08-26T00:57:15.791Z,15.89
2022-08-26T00:58:07.593Z,16.70
2022-08-26T00:59:07.530Z,17
2022-08-26T01:00:08.541Z,16.79
2022-08-26T01:01:07.615Z,16.5
2022-08-26T01:02:07.735Z,17
2022-08-26T01:03:11.639Z,17.5
2022-08-26T01:04:07.658Z,17
2022-08-26T01:05:07.843Z,17.20
2022-08-26T01:06:12.347Z,18.10
2022-08-26T01:07:08.219Z,17.89
2022-08-26T01:09:07.413Z,18.89
2022-08-26T01:10:07.764Z,18.60
2022-08-26T01:11:08.014Z,18.70
2022-08-26T01:12:07.369Z,19.29
2022-08-26T01:13:07.893Z,18.60
2022-08-26T01:14:08.763Z,19.10
2022-08-26T01:15:08.116Z,18.70
2022-08-26T01:16:07.765Z,19.29
2022-08-26T01:17:08.285Z,18.89
2022-08-26T01:18:07.842Z,19.20
2022-08-26T01:19:07.660Z,19.29
2022-08-26T01:20:08.199Z,20.20
2022-08-26T01:21:22.493Z,19.20
2022-08-26T01:22:07.735Z,20.29
2022-08-26T01:24:07.774Z,20.89
2022-08-26T01:25:07.736Z,21.79
2022-08-26T01:26:08.097Z,22
2022-08-26T01:27:07.647Z,21.79
2022-08-26T01:28:07.821Z,22.60
2022-08-26T01:29:07.745Z,25.5
2022-08-26T01:30:07.826Z,25
2022-08-26T01:31:08.072Z,24.70
2022-08-26T01:32:08.030Z,23.79
2022-08-26T01:33:08.232Z,24.89
2022-08-26T01:34:07.618Z,23.79
2022-08-26T01:35:07.852Z,25.10
2022-08-26T01:36:08.222Z,24.29
2022-08-26T01:38:07.430Z,24.89
2022-08-26T01:39:07.633Z,24.79
2022-08-26T01:41:16.107Z,25.79
2022-08-26T01:42:10.419Z,24.89
2022-08-26T01:43:07.939Z,25
2022-08-26T01:44:07.798Z,24.39
2022-08-26T01:45:08.419Z,25.79
2022-08-26T01:46:07.890Z,24.89
2022-08-26T01:47:07.957Z,25.10
2022-08-26T01:48:07.962Z,24.60
2022-08-26T01:49:07.867Z,26.10
2022-08-26T01:50:08.306Z,24.89
2022-08-26T01:51:07.423Z,25.5
2022-08-26T01:52:07.495Z,25.70
2022-08-26T01:53:08.455Z,25.10
2022-08-26T01:54:07.468Z,25
2022-08-26T01:55:08.347Z,26.20
2022-08-26T01:56:08.071Z,26.10
2022-08-26T01:57:07.942Z,26.29
2022-08-26T01:58:08.020Z,24.89
2022-08-26T01:59:07.945Z,25.89
2022-08-26T02:00:08.229Z,25.60
2022-08-26T02:01:07.747Z,25.29
2022-08-26T02:02:08.283Z,27.20
2022-08-26T02:04:07.459Z,26.10
2022-08-26T02:05:07.852Z,27.10
2022-08-26T02:06:09.199Z,26.39
2022-08-26T02:07:07.595Z,25.89
2022-08-26T02:08:07.692Z,25.29
2022-08-26T02:09:07.942Z,26.70
2022-08-26T02:10:08.643Z,26.5
2022-08-26T02:11:08.209Z,26.29
2022-08-26T02:12:07.883Z,26.5
2022-08-26T02:14:07.883Z,26.5
2022-08-26T02:15:08.296Z,25.70
2022-08-26T02:17:08.394Z,26.29
2022-08-26T02:18:07.743Z,26.39
2022-08-26T02:19:07.639Z,25.70
2022-08-26T02:20:07.643Z,24.89
2022-08-26T02:21:07.715Z,25.60
2022-08-26T02:22:07.479Z,27.10
2022-08-26T02:23:08.249Z,26.5
2022-08-26T02:24:07.893Z,25.10
2022-08-26T02:25:08.310Z,25.5
2022-08-26T02:26:07.928Z,27.10
2022-08-26T02:27:07.636Z,26
2022-08-26T02:28:08.225Z,24.29
2022-08-26T02:29:07.765Z,24.79
2022-08-26T02:30:07.911Z,24.89
2022-08-26T02:31:08.274Z,24.39
2022-08-26T02:32:07.633Z,25.39
2022-08-26T02:33:07.745Z,24.89
2022-08-26T02:34:07.867Z,24.70
2022-08-26T02:35:07.634Z,25.29
2022-08-26T02:36:07.588Z,26.20
2022-08-26T02:37:07.770Z,24.89
2022-08-26T02:38:10.278Z,23.10
2022-08-26T02:39:07.529Z,24.10
2022-08-26T02:40:07.570Z,24.60
2022-08-26T02:41:08.078Z,23.60
2022-08-26T02:42:07.897Z,23.29
2022-08-26T02:43:08.654Z,24.20
2022-08-26T02:44:08.129Z,23.60
2022-08-26T02:45:08.147Z,24.20
2022-08-26T02:46:08.208Z,23.39
2022-08-26T02:47:07.810Z,23.5
2022-08-26T02:48:08.155Z,24
2022-08-26T02:49:07.638Z,23.79
2022-08-26T02:50:08.412Z,24.10
2022-08-26T02:51:07.521Z,24.70
2022-08-26T02:52:07.762Z,23.10
2022-08-26T02:53:08.127Z,24.20
2022-08-26T02:54:07.499Z,22.70
2022-08-26T02:55:07.753Z,23
2022-08-26T02:56:07.603Z,24.70
2022-08-26T02:57:07.804Z,23.79
2022-08-26T02:58:07.601Z,23.60
2022-08-26T02:59:08.300Z,23.79
2022-08-26T03:00:08.150Z,24.39
2022-08-26T03:01:07.721Z,23.89
2022-08-26T03:02:08.193Z,24.60
2022-08-26T03:03:07.850Z,24.70
2022-08-26T03:04:08.338Z,24.10
2022-08-26T03:05:07.696Z,25
2022-08-26T03:06:07.871Z,24.89
2022-08-26T03:07:07.554Z,26.10
2022-08-26T03:08:07.493Z,24.79
2022-08-26T03:09:08.073Z,25.89
2022-08-26T03:10:08.849Z,24.29
2022-08-26T03:11:08.428Z,25.89
2022-08-26T03:12:07.559Z,25.60
2022-08-26T03:13:07.887Z,25.10
2022-08-26T03:14:07.841Z,26
2022-08-26T03:15:17.446Z,25
2022-08-26T03:16:08.141Z,26.29
2022-08-26T03:17:07.701Z,26.39
2022-08-26T03:18:07.665Z,25
2022-08-26T03:19:07.798Z,25.89
2022-08-26T03:20:08.478Z,25.10
2022-08-26T03:21:08.208Z,25.29
2022-08-26T03:22:07.556Z,25
2022-08-26T03:24:07.564Z,24.79
2022-08-26T03:25:07.838Z,25.10
2022-08-26T03:26:07.725Z,23.5
2022-08-26T03:27:08.554Z,24.5
2022-08-26T03:28:09.665Z,23.79
2022-08-26T03:29:07.775Z,24.5
2022-08-26T03:30:08.134Z,25.39
2022-08-26T03:31:07.891Z,25.10
2022-08-26T03:32:07.559Z,23.79
2022-08-26T03:33:07.625Z,23.5
2022-08-26T03:34:07.909Z,24.29
2022-08-26T03:35:08.155Z,24.20
2022-08-26T03:36:07.648Z,23.29
2022-08-26T03:37:07.509Z,23.10
2022-08-26T03:38:07.607Z,22.60
2022-08-26T03:39:07.722Z,22.5
2022-08-26T03:40:07.872Z,23.60
2022-08-26T03:41:08.263Z,22.89
2022-08-26T03:42:07.751Z,22.79
2022-08-26T03:43:09.588Z,22.89
2022-08-26T03:44:07.478Z,22.39
2022-08-26T03:45:08.209Z,23.79
2022-08-26T03:46:07.647Z,23
2022-08-26T03:47:07.682Z,22.39
2022-08-26T03:48:08.014Z,22.79
2022-08-26T03:49:07.740Z,22.5
2022-08-26T03:50:08.291Z,23.60
2022-08-26T03:51:07.939Z,23.10
2022-08-26T03:52:07.755Z,23.20
2022-08-26T03:53:12.869Z,22.10
2022-08-26T03:54:08.324Z,22.5
2022-08-26T03:55:07.916Z,22.89
2022-08-26T03:56:08.010Z,22.10
2022-08-26T03:57:07.382Z,23.29
2022-08-26T03:58:07.331Z,23
2022-08-26T03:59:07.796Z,22.10
2022-08-26T04:00:08.077Z,22.5
2022-08-26T04:01:07.472Z,22.79
2022-08-26T04:02:08.494Z,23
2022-08-26T04:03:09.733Z,22.39
2022-08-26T04:04:08.401Z,21.79
2022-08-26T04:06:07.585Z,23.20
2022-08-26T04:07:07.485Z,22.70
2022-08-26T04:08:08.206Z,23.29
2022-08-26T04:09:07.515Z,21.89
2022-08-26T04:10:08.025Z,21.20
2022-08-26T04:11:07.579Z,22
2022-08-26T04:12:07.939Z,22.60
2022-08-26T04:13:08.491Z,23.10
2022-08-26T04:14:07.578Z,21.70
2022-08-26T04:15:08.034Z,22.20
2022-08-26T04:16:07.478Z,21.70
2022-08-26T04:17:07.806Z,21.60
2022-08-26T04:20:07.816Z,21.20
2022-08-26T04:21:08.087Z,21
2022-08-26T04:23:07.989Z,20.89
2022-08-26T04:25:08.204Z,20.10
2022-08-26T04:26:08.269Z,20.60
2022-08-26T04:27:07.313Z,19.89
2022-08-26T04:28:08.211Z,20.39
2022-08-26T04:29:08.212Z,20.79
2022-08-26T04:30:07.779Z,20.5
2022-08-26T04:31:07.957Z,19.60
2022-08-26T04:32:07.644Z,19.70
2022-08-26T04:33:13.074Z,20.39
2022-08-26T04:34:07.404Z,20.70
2022-08-26T04:35:07.532Z,20.29
2022-08-26T04:36:07.539Z,20.39
2022-08-26T04:37:08.132Z,19.89
2022-08-26T04:38:08.099Z,19.29
2022-08-26T04:39:08.312Z,19
2022-08-26T04:40:07.709Z,20.39
2022-08-26T04:41:15.044Z,19.39
2022-08-26T04:43:08.468Z,19.29
2022-08-26T04:44:07.912Z,18.60
2022-08-26T04:45:09.914Z,18.39
2022-08-26T04:46:07.642Z,19.60
2022-08-26T04:47:07.715Z,19.5
2022-08-26T04:48:08.397Z,20
2022-08-26T04:49:07.651Z,19.39
2022-08-26T04:50:07.771Z,18.89
2022-08-26T04:51:07.720Z,19.70
2022-08-26T04:53:07.677Z,18
2022-08-26T04:54:07.968Z,19
2022-08-26T04:55:08.759Z,17.89
2022-08-26T04:56:07.483Z,19.10
2022-08-26T04:57:07.870Z,19.20
2022-08-26T04:58:07.724Z,18.79
2022-08-26T04:59:07.856Z,19.20
2022-08-26T05:00:08.565Z,18.39
2022-08-26T05:02:07.664Z,18.79
2022-08-26T05:03:07.735Z,18.29
2022-08-26T05:04:08.309Z,18.10
2022-08-26T05:05:08.008Z,17.60
2022-08-26T05:06:08.705Z,17.5
2022-08-26T05:07:08.131Z,17.60
2022-08-26T05:08:07.838Z,18.29
2022-08-26T05:09:07.684Z,17.70
2022-08-26T05:10:08.823Z,17.79
2022-08-26T05:11:08.327Z,17.89
2022-08-26T05:12:08.085Z,17.39
2022-08-26T05:13:11.066Z,17.10
2022-08-26T05:15:08.127Z,16.60
2022-08-26T05:16:07.879Z,17.10
2022-08-26T05:18:07.763Z,17.39
2022-08-26T05:19:08.585Z,17.10
2022-08-26T05:20:08.365Z,16.89
2022-08-26T05:22:07.877Z,16.79
2022-08-26T05:23:08.200Z,17
2022-08-26T05:24:07.616Z,17.29
2022-08-26T05:25:07.798Z,16.70
2022-08-26T05:26:08.283Z,16.39
2022-08-26T05:27:11.667Z,16
2022-08-26T05:28:08.518Z,16.5
2022-08-26T05:29:07.731Z,16.79
2022-08-26T05:30:08.170Z,15.89
2022-08-26T05:31:08.534Z,16.39
2022-08-26T05:32:08.029Z,15.89
2022-08-26T05:33:08.093Z,16
2022-08-26T05:34:07.323Z,16.20
2022-08-26T05:37:07.655Z,15.60
2022-08-26T05:38:12.256Z,16.29
2022-08-26T05:39:10.606Z,16.20
2022-08-26T05:40:08.178Z,15.5
2022-08-26T05:41:07.582Z,16.10
2022-08-26T05:42:08.163Z,16.60
2022-08-26T05:43:07.711Z,15.69
2022-08-26T05:44:07.535Z,17.20
2022-08-26T05:45:07.853Z,16
2022-08-26T05:46:08.052Z,15.89
2022-08-26T05:47:08.058Z,16
2022-08-26T05:48:08.153Z,15.69
2022-08-26T05:49:12.435Z,16.5
2022-08-26T05:50:07.776Z,15.5
2022-08-26T05:51:07.657Z,16.89
2022-08-26T05:52:07.680Z,15.5
2022-08-26T05:53:07.756Z,16.5
2022-08-26T05:54:08.371Z,15.39
2022-08-26T05:55:08.665Z,15.19
2022-08-26T05:56:07.934Z,15.39
2022-08-26T05:57:09.225Z,14.39
2022-08-26T05:58:09.857Z,14.89
2022-08-26T05:59:14.340Z,14.19
2022-08-26T06:00:08.934Z,15
2022-08-26T06:01:08.514Z,15.39
2022-08-26T06:02:08.092Z,14.69
2022-08-26T06:03:09.606Z,15.19
2022-08-26T06:04:09.170Z,14.89
2022-08-26T06:05:08.314Z,14.80
2022-08-26T06:06:08.453Z,14.60
2022-08-26T06:07:07.738Z,15
2022-08-26T06:08:08.517Z,14.69
2022-08-26T06:09:09.449Z,14.60
2022-08-26T06:10:31.014Z,14.10
2022-08-26T06:11:08.765Z,14.89
2022-08-26T06:12:08.119Z,14.80
2022-08-26T06:13:11.564Z,13.5
2022-08-26T06:14:08.572Z,13.89
2022-08-26T06:15:08.457Z,14.5
2022-08-26T06:16:08.880Z,14.80
2022-08-26T06:17:08.196Z,14.30
2022-08-26T06:18:08.134Z,14.39
2022-08-26T06:19:10.900Z,13.60
2022-08-26T06:20:07.937Z,14.30
2022-08-26T06:21:08.697Z,13.69
2022-08-26T06:22:07.971Z,13.19
2022-08-26T06:23:08.285Z,13.10
2022-08-26T06:24:08.295Z,13.69
2022-08-26T06:25:07.987Z,13.5
2022-08-26T06:26:08.370Z,13.69
2022-08-26T06:27:07.604Z,13
2022-08-26T06:28:08.253Z,13.39
2022-08-26T06:29:08.194Z,13.60
2022-08-26T06:30:08.504Z,13.30
2022-08-26T06:31:08.229Z,12.80
2022-08-26T06:32:08.798Z,13.60
2022-08-26T06:33:08.526Z,12.39
2022-08-26T06:34:10.707Z,14
2022-08-26T06:35:12.205Z,13.60
2022-08-26T06:36:08.353Z,13.5
2022-08-26T06:37:08.112Z,13.80
2022-08-26T06:38:08.188Z,13.39
2022-08-26T06:39:30.707Z,13.5
2022-08-26T06:40:07.629Z,13.80
2022-08-26T06:41:08.105Z,13.30
2022-08-26T06:42:08.095Z,13.69
2022-08-26T06:43:07.945Z,13.80
2022-08-26T06:44:07.892Z,14.80
2022-08-26T06:45:09.831Z,14.19
2022-08-26T06:46:07.876Z,13.89
2022-08-26T06:47:07.727Z,13.80
2022-08-26T06:48:07.999Z,14.5
2022-08-26T06:49:07.821Z,13.10
2022-08-26T06:50:07.765Z,13
2022-08-26T06:51:08.261Z,13.19
2022-08-26T06:52:07.709Z,12.69
2022-08-26T06:53:08.360Z,13.19
2022-08-26T06:54:08.436Z,12.89
2022-08-26T06:55:07.989Z,12.69
2022-08-26T06:56:07.807Z,14.10
2022-08-26T06:57:08.132Z,13.69
2022-08-26T06:58:07.716Z,13.39
2022-08-26T07:00:08.566Z,13.89
2022-08-26T07:01:11.619Z,13.10
2022-08-26T07:02:08.151Z,12.69
2022-08-26T07:03:08.613Z,13.60
2022-08-26T07:04:10.373Z,13.19
2022-08-26T07:06:08.578Z,13.30
2022-08-26T07:07:09.672Z,13.60
2022-08-26T07:08:08.241Z,14.10
2022-08-26T07:09:09.707Z,13
2022-08-26T07:10:08.743Z,13.80
2022-08-26T07:11:08.488Z,13.69
2022-08-26T07:12:08.260Z,13.60
2022-08-26T07:13:08.295Z,13.10
2022-08-26T07:14:07.606Z,13.19
2022-08-26T07:15:07.924Z,13.30
2022-08-26T07:16:07.985Z,13.5
2022-08-26T07:17:12.220Z,13.39
2022-08-26T07:18:08.004Z,13.19
2022-08-26T07:19:10.937Z,13.5
2022-08-26T07:20:09.225Z,14.5
2022-08-26T07:21:08.241Z,14.19
2022-08-26T07:22:08.650Z,13.69
2022-08-26T07:23:07.748Z,14.39
2022-08-26T07:24:08.021Z,14.5
2022-08-26T07:25:08.585Z,14.39
2022-08-26T07:26:08.353Z,14.19
2022-08-26T07:27:08.708Z,13.80
2022-08-26T07:28:07.943Z,14.80
2022-08-26T07:29:08.385Z,14.19
2022-08-26T07:30:08.649Z,13.39
2022-08-26T07:31:09.667Z,14.5
2022-08-26T07:32:08.520Z,14.10
2022-08-26T07:33:08.553Z,14.60
2022-08-26T07:34:08.858Z,14
2022-08-26T07:35:08.633Z,14.60
2022-08-26T07:36:08.029Z,15.30
2022-08-26T07:37:08.795Z,14.19
2022-08-26T07:38:07.860Z,14.39
2022-08-26T07:40:08.315Z,13.39
2022-08-26T07:41:08.018Z,13.89
2022-08-26T07:42:08.565Z,13.80
2022-08-26T07:43:08.923Z,12.80
2022-08-26T07:44:07.814Z,13.69
2022-08-26T07:45:08.258Z,12.89
2022-08-26T07:48:08.289Z,15.30
2022-08-26T07:49:08.540Z,13.5
2022-08-26T07:51:08.024Z,12.80
2022-08-26T07:52:08.486Z,13.39
2022-08-26T07:53:08.425Z,12.10
2022-08-26T07:54:07.877Z,12.80
2022-08-26T07:55:07.803Z,12.5
2022-08-26T07:56:08.569Z,13
2022-08-26T07:57:08.354Z,12
2022-08-26T07:58:07.740Z,12.60
2022-08-26T07:59:13.584Z,11.30
2022-08-26T08:00:08.656Z,12.10
2022-08-26T08:01:08.000Z,11.60
2022-08-26T08:02:08.436Z,11.69
2022-08-26T08:03:08.068Z,10.5
2022-08-26T08:04:07.651Z,11.10
2022-08-26T08:05:07.738Z,11.60
2022-08-26T08:06:07.780Z,10.80
2022-08-26T08:07:11.596Z,11.60
2022-08-26T08:08:26.909Z,11.10
2022-08-26T08:09:08.257Z,11.5
2022-08-26T08:10:11.374Z,11.19
2022-08-26T08:11:08.320Z,11.80
2022-08-26T08:12:08.347Z,11.10
2022-08-26T08:13:08.017Z,11.30
2022-08-26T08:14:08.773Z,9.899
2022-08-26T08:15:08.701Z,9.800
2022-08-26T08:16:07.918Z,10.69
2022-08-26T08:17:08.781Z,11.60
2022-08-26T08:18:07.701Z,10.19
2022-08-26T08:19:07.980Z,11.30
2022-08-26T08:20:08.166Z,10.80
2022-08-26T08:21:21.289Z,10.69
2022-08-26T08:22:17.277Z,10.30
2022-08-26T08:23:08.225Z,10.60
2022-08-26T08:24:07.693Z,10.69
2022-08-26T08:25:08.323Z,10.60
2022-08-26T08:26:08.281Z,10.89
2022-08-26T08:27:07.771Z,10
2022-08-26T08:28:08.164Z,10.10
2022-08-26T08:30:08.480Z,10.30
2022-08-26T08:31:07.806Z,10.10
2022-08-26T08:32:11.588Z,9.800
2022-08-26T08:33:07.994Z,10
2022-08-26T08:34:07.692Z,10.10
2022-08-26T08:36:09.269Z,10.19
2022-08-26T08:37:10.659Z,10.69
2022-08-26T08:40:07.608Z,9.699
2022-08-26T08:41:07.761Z,9.800
2022-08-26T08:42:08.056Z,10.89
2022-08-26T08:43:08.188Z,10.69
2022-08-26T08:44:07.758Z,10.19
2022-08-26T08:45:08.360Z,10.60
2022-08-26T08:46:07.929Z,9.899
2022-08-26T08:47:08.417Z,10.39
2022-08-26T08:48:08.101Z,10.80
2022-08-26T08:49:07.743Z,9.5
2022-08-26T08:50:08.400Z,9.600
2022-08-26T08:51:07.952Z,9.5
2022-08-26T08:52:07.626Z,10
2022-08-26T08:53:09.039Z,9.5
2022-08-26T08:54:08.027Z,9.800
2022-08-26T08:56:27.311Z,9.899
2022-08-26T08:57:08.166Z,9.5
2022-08-26T08:58:08.398Z,9.699
2022-08-26T08:59:08.513Z,8.899
2022-08-26T09:00:08.573Z,8.199
2022-08-26T09:01:07.545Z,8.800
2022-08-26T09:02:08.380Z,9.100
2022-08-26T09:03:08.064Z,8.699
2022-08-26T09:05:08.020Z,8.5
2022-08-26T09:06:08.338Z,8.699
2022-08-26T09:07:07.502Z,9.199
2022-08-26T09:08:08.017Z,8.800
2022-08-26T09:09:07.718Z,8.899
2022-08-26T09:10:07.869Z,8.699
2022-08-26T09:11:07.646Z,8.899
2022-08-26T09:12:08.108Z,8.5
2022-08-26T09:13:07.802Z,8.800
2022-08-26T09:14:07.646Z,8.100
2022-08-26T09:15:07.982Z,8.300
2022-08-26T09:16:08.355Z,8.199
2022-08-26T09:17:08.537Z,8.899
2022-08-26T09:19:08.275Z,8.800
2022-08-26T09:20:08.043Z,8
2022-08-26T09:21:08.349Z,8.5
2022-08-26T09:22:09.590Z,8.199
2022-08-26T09:23:08.255Z,8.5
2022-08-26T09:24:07.750Z,8.399
2022-08-26T09:25:07.647Z,8.5
2022-08-26T09:26:07.625Z,7.900
2022-08-26T09:27:08.424Z,8.699
2022-08-26T09:28:08.191Z,8.199
2022-08-26T09:29:07.577Z,8.600
2022-08-26T09:30:11.452Z,8
2022-08-26T09:32:08.303Z,8.199
2022-08-26T09:33:10.933Z,8
2022-08-26T09:34:07.985Z,7.900
2022-08-26T09:35:08.135Z,7.199
2022-08-26T09:36:07.634Z,8
2022-08-26T09:38:11.690Z,7.800
2022-08-26T09:39:08.302Z,8.100
2022-08-26T09:40:08.025Z,8.600
2022-08-26T09:41:07.860Z,8.199
2022-08-26T09:42:07.664Z,8
2022-08-26T09:43:08.186Z,8.100
2022-08-26T09:44:07.875Z,7.900
2022-08-26T09:45:08.639Z,8.100
2022-08-26T09:46:07.627Z,7.900
2022-08-26T09:47:07.831Z,7.699
2022-08-26T09:48:08.707Z,8
2022-08-26T09:49:08.102Z,7.099
2022-08-26T09:50:09.437Z,8
2022-08-26T09:52:08.002Z,7.099
2022-08-26T09:54:08.273Z,6.800
2022-08-26T09:55:08.446Z,7
2022-08-26T09:56:07.814Z,7.300
2022-08-26T09:57:08.149Z,6.5
2022-08-26T09:58:09.202Z,7.199
2022-08-26T09:59:07.734Z,6.599
2022-08-26T10:00:09.386Z,7
2022-08-26T10:01:08.160Z,7.699
2022-08-26T10:02:08.052Z,6.800
2022-08-26T10:03:08.315Z,7
2022-08-26T10:04:07.903Z,7.199
2022-08-26T10:05:09.208Z,7.699
2022-08-26T10:06:08.400Z,7.5
2022-08-26T10:07:08.194Z,7.099
2022-08-26T10:08:07.639Z,7.300
2022-08-26T10:09:09.860Z,7.199
2022-08-26T10:11:07.905Z,7.599
2022-08-26T10:12:08.459Z,6.800
2022-08-26T10:13:08.339Z,7
2022-08-26T10:14:07.730Z,7.099
2022-08-26T10:16:10.694Z,7.699
2022-08-26T10:17:08.185Z,7
2022-08-26T10:19:08.321Z,6.400
2022-08-26T10:20:16.803Z,6.900
2022-08-26T10:21:07.727Z,7.400
2022-08-26T10:22:08.142Z,7.699
2022-08-26T10:23:08.158Z,7.099
2022-08-26T10:24:07.650Z,7.199
2022-08-26T10:25:07.659Z,6.400
2022-08-26T10:26:07.890Z,7.199
2022-08-26T10:27:07.981Z,6.699
2022-08-26T10:28:08.329Z,6.400
2022-08-26T10:29:08.435Z,7.199
2022-08-26T10:31:08.078Z,6.800
2022-08-26T10:32:08.524Z,6.900
2022-08-26T10:33:08.165Z,7.300
2022-08-26T10:34:07.807Z,7.400
2022-08-26T10:36:08.516Z,7.300
2022-08-26T10:37:13.906Z,7
2022-08-26T10:38:07.995Z,6.400
2022-08-26T10:39:08.360Z,7
2022-08-26T10:40:08.542Z,6.699
2022-08-26T10:42:07.794Z,6.800
2022-08-26T10:43:11.330Z,6.599
2022-08-26T10:45:11.834Z,7
2022-08-26T10:46:08.444Z,7.300
2022-08-26T10:47:08.245Z,7.699
2022-08-26T10:49:07.801Z,7.099
2022-08-26T10:51:08.690Z,6.400
2022-08-26T10:52:12.193Z,7
2022-08-26T10:53:07.868Z,6.900
2022-08-26T10:54:08.441Z,7.300
2022-08-26T10:55:16.491Z,6.5
2022-08-26T10:56:15.733Z,6.699
2022-08-26T10:57:09.783Z,6.900
2022-08-26T10:58:09.207Z,6.300
2022-08-26T10:59:12.265Z,6.5
2022-08-26T11:00:08.633Z,6.800
2022-08-26T11:01:10.474Z,6.400
2022-08-26T11:02:08.367Z,6.599
2022-08-26T11:03:21.722Z,6.300
2022-08-26T11:04:08.522Z,6.099
2022-08-26T11:06:08.472Z,6.800
2022-08-26T11:07:08.327Z,5.900
2022-08-26T11:08:07.867Z,6.300
2022-08-26T11:10:07.865Z,5.5
2022-08-26T11:11:08.566Z,6.300
2022-08-26T11:12:10.274Z,6.099
2022-08-26T11:13:08.389Z,6.300
2022-08-26T11:14:08.200Z,6.099
2022-08-26T11:16:08.730Z,5.800
2022-08-26T11:17:08.687Z,6.599
2022-08-26T11:18:08.361Z,6.099
2022-08-26T11:19:08.206Z,5.800
2022-08-26T11:20:13.443Z,6.699
2022-08-26T11:21:10.344Z,6.099
2022-08-26T11:22:08.146Z,6.400
2022-08-26T11:23:08.699Z,6.699
2022-08-26T11:25:08.365Z,6.199
2022-08-26T11:26:08.234Z,7
2022-08-26T11:28:08.609Z,6.800
2022-08-26T11:29:29.860Z,6.699
2022-08-26T11:30:08.059Z,6
2022-08-26T11:31:07.963Z,6.400
2022-08-26T11:32:08.308Z,6.5
2022-08-26T11:33:09.023Z,6.300
2022-08-26T11:34:08.744Z,6.699
2022-08-26T11:35:08.402Z,6.800
2022-08-26T11:36:12.191Z,6.400
2022-08-26T11:37:07.995Z,6.599
2022-08-26T11:38:08.350Z,6.800
2022-08-26T11:39:08.332Z,6.400
2022-08-26T11:40:07.769Z,6.300
2022-08-26T11:41:07.723Z,6.099
2022-08-26T11:42:08.232Z,6.300
2022-08-26T11:43:07.914Z,6.099
2022-08-26T11:44:08.362Z,6.400
2022-08-26T11:45:07.862Z,5.900
2022-08-26T11:46:07.911Z,6
2022-08-26T11:47:11.378Z,5.400
2022-08-26T11:48:07.984Z,5.599
2022-08-26T11:49:08.127Z,5.5
2022-08-26T11:50:08.462Z,5.699
2022-08-26T11:52:08.179Z,5.5
2022-08-26T11:53:07.847Z,5.699
2022-08-26T11:54:08.426Z,5.400
2022-08-26T11:55:08.348Z,6.099
2022-08-26T11:56:08.101Z,6
2022-08-26T11:58:08.415Z,6.099
2022-08-26T11:59:07.917Z,6.300
2022-08-26T12:00:10.655Z,5.900
2022-08-26T12:01:09.866Z,6.300
2022-08-26T12:02:08.018Z,5.400
2022-08-26T12:04:08.075Z,5.800
2022-08-26T12:05:08.460Z,7.099
2022-08-26T12:06:07.558Z,5.5
2022-08-26T12:07:08.618Z,5.099
2022-08-26T12:08:08.685Z,4.800
2022-08-26T12:09:08.780Z,5.099
2022-08-26T12:10:08.069Z,5.300
2022-08-26T12:11:08.611Z,6.099
2022-08-26T12:12:08.386Z,6
2022-08-26T12:13:08.345Z,5.699
2022-08-26T12:15:08.612Z,5.5
2022-08-26T12:17:09.850Z,5.199
2022-08-26T12:18:08.906Z,5.300
2022-08-26T12:19:07.903Z,5.199
2022-08-26T12:20:08.377Z,5.699
2022-08-26T12:22:08.335Z,5.300
2022-08-26T12:23:08.122Z,5.699
2022-08-26T12:24:08.154Z,5.400
2022-08-26T12:25:08.346Z,5.199
2022-08-26T12:26:08.065Z,5.599
2022-08-26T12:28:08.462Z,5.199
2022-08-26T12:29:12.736Z,5.300
2022-08-26T12:30:08.586Z,5.400
2022-08-26T12:31:07.838Z,5.099
2022-08-26T12:33:22.259Z,5.199
2022-08-26T12:34:15.883Z,5.099
2022-08-26T12:36:08.138Z,5.5
2022-08-26T12:37:08.378Z,5.400
2022-08-26T12:38:08.042Z,5.300
2022-08-26T12:39:08.409Z,5.800
2022-08-26T12:40:08.096Z,5.400
2022-08-26T12:41:07.874Z,5.099
2022-08-26T12:42:08.556Z,5.300
2022-08-26T12:43:08.132Z,5.199
2022-08-26T12:44:08.141Z,5.300
2022-08-26T12:45:08.139Z,5.400
2022-08-26T12:46:08.205Z,5.300
2022-08-26T12:48:08.538Z,5.099
2022-08-26T12:49:08.450Z,5.699
2022-08-26T12:50:08.129Z,5.5
2022-08-26T12:51:08.338Z,5.300
2022-08-26T12:53:08.033Z,4.699
2022-08-26T12:54:08.449Z,4.800
2022-08-26T12:55:08.207Z,4.599
2022-08-26T12:56:07.790Z,4.300
2022-08-26T12:57:08.576Z,4.400
2022-08-26T12:58:08.314Z,4.5
2022-08-26T12:59:08.287Z,4.800
2022-08-26T13:00:08.365Z,4
2022-08-26T13:01:08.464Z,4.699
2022-08-26T13:02:08.572Z,4.300
2022-08-26T13:03:08.568Z,4.199
2022-08-26T13:04:08.262Z,5.199
2022-08-26T13:05:08.328Z,4.599
2022-08-26T13:06:15.639Z,4.199
2022-08-26T13:07:07.888Z,4.699
2022-08-26T13:08:08.335Z,5
2022-08-26T13:09:08.036Z,4.400
2022-08-26T13:11:07.911Z,4.199
2022-08-26T13:12:08.344Z,4.400
2022-08-26T13:13:08.259Z,5.400
2022-08-26T13:14:07.937Z,4.800
2022-08-26T13:15:08.291Z,4
2022-08-26T13:16:08.031Z,4.699
2022-08-26T13:17:08.519Z,4
2022-08-26T13:18:08.379Z,4.300
2022-08-26T13:20:08.502Z,4.099
2022-08-26T13:21:08.066Z,4.400
2022-08-26T13:22:08.457Z,4.199
2022-08-26T13:23:08.105Z,4.400
2022-08-26T13:24:08.419Z,4.300
2022-08-26T13:25:08.116Z,4.699
2022-08-26T13:26:08.354Z,4.5
2022-08-26T13:27:07.831Z,4.400
2022-08-26T13:28:22.405Z,4.199
2022-08-26T13:29:10.322Z,5.300
2022-08-26T13:30:08.571Z,5
2022-08-26T13:31:08.072Z,4.599
2022-08-26T13:32:07.905Z,4.900
2022-08-26T13:34:08.223Z,4.5
2022-08-26T13:35:08.040Z,4.400
2022-08-26T13:36:08.434Z,4.300
2022-08-26T13:37:08.058Z,4.5
2022-08-26T13:38:08.486Z,4.599
2022-08-26T13:40:08.841Z,4.800
2022-08-26T13:41:08.025Z,4
2022-08-26T13:42:08.142Z,4.599
2022-08-26T13:43:08.183Z,4.900
2022-08-26T13:44:07.742Z,4.199
2022-08-26T13:45:08.576Z,4.300
2022-08-26T13:46:08.055Z,3.900
2022-08-26T13:47:07.879Z,3.799
2022-08-26T13:48:08.730Z,3.900
2022-08-26T13:49:07.749Z,4.099
2022-08-26T13:51:08.284Z,4.300
2022-08-26T13:54:07.836Z,3.900
2022-08-26T13:55:08.540Z,3.700
2022-08-26T13:56:10.884Z,3.799
2022-08-26T13:57:07.787Z,4.099
2022-08-26T13:59:07.792Z,4
2022-08-26T14:01:08.325Z,4.199
2022-08-26T14:03:12.622Z,4.099
2022-08-26T14:04:08.009Z,3.799
2022-08-26T14:06:08.041Z,5.300
2022-08-26T14:07:08.148Z,4
2022-08-26T14:09:08.216Z,3.599
2022-08-26T14:10:08.410Z,4.199
2022-08-26T14:11:08.105Z,3.900
2022-08-26T14:12:08.712Z,4
2022-08-26T14:13:08.590Z,4.099
2022-08-26T14:14:08.185Z,4.300
2022-08-26T14:15:08.127Z,3.799
2022-08-26T14:16:08.213Z,3.400
2022-08-26T14:17:08.250Z,4.400
2022-08-26T14:18:08.391Z,3.799
2022-08-26T14:19:08.390Z,4
2022-08-26T14:20:08.658Z,4.199
2022-08-26T14:21:08.376Z,3.700
2022-08-26T14:22:08.342Z,4.099
2022-08-26T14:25:08.379Z,4.400